This is the latest recevied weather packets stored in our database for station/object VA3ECP. If no packets are shown the sender has not sent any weather packets the latest 10 day(s).
| Time | Temp. | Humidity | Pressure | Rain* | Wind** | Luminosity | Snow |
|---|---|---|---|---|---|---|---|
| 1777114837 | 2.78° C | 76% | 1017.8 hPa | 0 mm | - | - | - |
| 1777111221 | 1.67° C | 78% | 1017.6 hPa | 0 mm | - | - | - |
| 1777105828 | 2.22° C | 75% | 1017.4 hPa | 0 mm | - | - | - |
| 1777098020 | 4.44° C | 65% | 1017.3 hPa | 0 mm | - | - | - |
| 1777097422 | 5° C | 65% | 1017.4 hPa | 0 mm | - | - | - |
| 1777092022 | 6.11° C | 64% | 1016.6 hPa | 0 mm | - | - | - |
| 1777087223 | 7.78° C | 59% | 1016.1 hPa | 0 mm | - | - | - |
| 1777086624 | 7.78° C | 58% | 1016.2 hPa | 0 mm | - | - | - |
| 1777083620 | 8.33° C | 53% | 1016 hPa | 0 mm | - | - | - |
| 1777067419 | 14.44° C | 36% | 1012.9 hPa | 0 mm | - | - | - |
| 1777065033 | 14.44° C | 35% | 1012.9 hPa | 0 mm | - | - | - |
| 1777063220 | 15.56° C | 34% | 1013 hPa | 0 mm | - | - | - |
| 1777060834 | 16.11° C | 35% | 1012.8 hPa | 0 mm | - | - | - |
| 1777059621 | 16.67° C | 35% | 1012.8 hPa | 0 mm | - | - | - |
| 1777053640 | 15° C | 40% | 1013.1 hPa | 0 mm | - | - | - |
| 1777048828 | 12.22° C | 46% | 1014 hPa | 0 mm | - | - | - |
| 1777046422 | 11.11° C | 47% | 1014.7 hPa | 0 mm | - | - | - |
| 1777045219 | 10.56° C | 47% | 1015 hPa | 0 mm | - | - | - |
| 1777044020 | 10° C | 47% | 1015.3 hPa | 0 mm | - | - | - |
| 1777042826 | 10° C | 49% | 1015.4 hPa | 0 mm | - | - | - |
| 1777032620 | 3.33° C | 67% | 1016.8 hPa | 0 mm | - | - | - |
| 1777031435 | 2.78° C | 70% | 1016.7 hPa | 0 mm | - | - | - |
| 1777028442 | 0° C | 79% | 1016.8 hPa | 0 mm | - | - | - |
| 1777027828 | -0.56° C | 80% | 1016.8 hPa | 0 mm | - | - | - |
| 1777027228 | -0.56° C | 80% | 1016.7 hPa | 0 mm | - | - | - |
* Rain latest hour (hover to see other rain measurements)
** Current wind speed in m/s (hover to see current wind gust speed)